LFBU/ANG METAR and TAF weather

Enter ICAO airport designator
Station Type Date Time Source
LFBU METAR 2021/01/22 07:30 UTC NOAA

LFBU 220730Z AUTO 17003KT 140V210 8000 RA FEW010/// SCT022/// BKN030/// ///CB 08/08 Q0992 BECMG 32015G25KT NSW OVC015


Station Type Date Time Source
LFBU Decoded METAR 2021/01/22 07:30 UTC NOAA

Station name not available
Jan 22, 2021 - 02:30 AM EST / 2021.01.22 0730 UTC
Wind: from the S (170 degrees) at 3 MPH (3 KT) (direction variable):0
Visibility: 4 mile(s):0
Sky conditions: mostly cloudy
Weather: rain; Cumulonimbus clouds observed
Temperature: 46 F (8 C)
Dew Point: 46 F (8 C)
Relative Humidity: 100%
Pressure (altimeter): 29.29 in. Hg (0992 hPa)
ob: LFBU 220730Z AUTO 17003KT 140V210 8000 RA FEW010/// SCT022/// BKN030/// ///CB 08/08 Q0992 BECMG 32015G25KT NSW OVC015
cycle: 7

Station Type Date Time Source
LFBU TAF 2021/01/22 07:00 UTC NOAA

TAF
AMD LFBU 220728Z 2207/2306 17010KT 7000 -RA OVC015
TEMPO 2207/2208 3000 RA OVC008 FEW040CB
BECMG 2208/2210 32015G25KT 9999 NSW
BECMG 2210/2212 31015KT SCT025
BECMG 2215/2217 24010KT
TEMPO 2217/2302 4500 -SHRA BKN025TCU
BECMG 2302/2304 18012KT 4500 RA
TEMPO 2304/2306 19015G25KT 2000 RA BKN007 FEW030CB

Example: see airport list